arxmliv
arxmliv build tool
 
KWARC group
LaTeXML
About
   
 

Detailed info

Back to Homepage

List of missing_macros

No. Date Filename num_warningnum_errornum_xmargok_xmargnum_xmathok_xmathMissing macros
25401 2013-04-12 11:00:52 /1006/1006.2384 110000[\lambdabar].
25402 2013-04-12 11:00:22 /1006/1006.2363 49930000[\Abstract, \preprint, \address, \bezier]; 1 missing file[utarticle.cls].
25403 2013-04-12 11:00:13 /1006/1006.2360 2660000[{IEEEkeywords}, \IEEEpeerreviewmaketitle, {proof}, \ifCLASSINFOpdf]; 1 missing file[IEEEtran.cls].
25404 2013-04-12 11:00:09 /1006/1006.2380 2030000[{keywords}, {proof}]; 2 missing files[stfloats.sty, IEEEtran.cls].
25405 2013-04-12 11:00:07 /1006/1006.2385 010000[\cortext].
25406 2013-04-12 10:59:59 /1006/1006.2362 410000[Align].
25407 2013-04-12 10:59:52 /1006/1006.2377 490000[\endfoot, Align, \tablebib, \endhead, \endfirsthead, {longtable}]; 1 missing file[aalongtable.sty].
25408 2013-04-12 10:59:28 /1006/1006.2365 550000[\preface, \shortcite, \affiliation]; 1 missing file[pinchcr.cls].
25409 2013-04-12 10:58:59 /1006/1006.2371 1410000[\mathds].
25410 2013-04-12 10:58:54 /1006/1006.2356 620000[\theappendix]; 1 missing file[xy.sty].
25411 2013-04-12 10:58:49 /1006/1006.2358 010000[\includegraphics].
25412 2013-04-12 10:58:42 /1006/1006.2292 9890000[\altkeywords, \psfragscanon, \keywords, \urladdr, \frontmatter, \email, {altabstract}, \subjclass, \psfrag].
25413 2013-04-12 10:58:34 /1006/1006.2341 22550000[\Arc, \Line, \Photon, \SetColor, \CBox, \Black, \Text, \SetWidth, \PhotonArc, \GOval]; 1 missing file[axodraw4j.sty].
25414 2013-04-12 10:58:26 /1006/1006.2342 540000[\ShortTitle, \email, \FullConference, \speaker]; 1 missing file[PoS.cls].
25415 2013-04-12 10:57:42 /1006/1006.2334 1410000[\proofmodefalse]; 1 missing file[oxarticle.cls].
25416 2013-04-12 10:57:33 /1006/1006.2338 9150000[\PACSes, \BY, \IN, \@slowromancap, \PACSit, \instlist, \from].
25417 2013-04-12 10:57:29 /1006/1006.2316 3180000[\xymatrixcolsep, Align, \SelectTips, \xymatrix, \entrymodifiers, \xymatrixrowsep, \ar]; 1 missing file[xy.sty].
25418 2013-04-12 10:57:20 /1006/1006.2308 7190000[\theappendix, \psaxes]; 1 missing file[pst-coil.sty].
25419 2013-04-12 10:57:10 /1006/1006.2312 22120000[{addendum}, {methodssummaryenv}, {methodsenv}, {affiliations}]; 1 missing file[nature.cls].
25420 2013-04-12 10:57:04 /1006/1006.2329 150000[\editors, \affiliation, \jname, \volume, \pubyear]; 1 missing file[iaus.cls].
25421 2013-04-12 10:56:23 /1006/1006.2298 2630000[\pdfpageheight, \pdfpagewidth]; 1 missing file[xy.sty].
25422 2013-04-12 10:56:11 /1006/1006.2302 130000[{keywords}, \address, \name].
25423 2013-04-12 10:55:51 /1006/1006.2282 2120000[\cortext]; 1 missing file[pst-3d.sty].
25424 2013-04-12 10:55:43 /1006/1006.2283 29840000[\with, \parr, \infer]; 1 missing file[cmll.sty].
25425 2013-04-12 10:55:05 /1006/1006.2289 86200000[{exa}, \address, \email, \subjclass, {defi}, {lem}, {thm}, {cor}, {prop}, \lmcsheading, \qed, \keywords, {rem}, {boxedminipage}, {proof}, {algo}, \bigsqcap]; 2 missing files[boxedminipage.sty, LMCS.cls].
25426 2013-04-12 10:55:00 /1006/1006.2300 5100000[{comment}, \titlelabel, \geometry, \titleformat].
25427 2013-04-12 10:54:27 /1006/1006.2273 2830000[\affil, \mathds]; 1 missing file[authblk.sty].
25428 2013-04-12 10:53:59 /1006/1006.2280 11310000[\theappendix].
25429 2013-04-12 10:53:53 /1006/1006.2288 9130000[\Book, \pacs, \inst, \shortauthor, \institute, \acknowledgments, \includegraphics, \shorttitle, \gtrsim, \Name, \REVIEW, \etal]; 2 missing files[qsymbols.sty, epl2.cls].
25430 2013-04-12 10:53:33 /1006/1006.2276 360000[Align, \interleave, \xymatrix, \geometry, \ar]; 1 missing file[xy.sty].
25431 2013-04-12 10:53:28 /1006/1006.2267 3170000[\psfrag].
25432 2013-04-12 10:53:25 /1006/1006.2277 030000[{theacknowledgments}, \layoutstyle, \classification].
25433 2013-04-12 10:52:55 /1006/1006.2269 9110000[\fnref, {SCfigure}, Align, \cortext, \fntext, \biboptions]; 1 missing file[sidecap.sty].
25434 2013-04-12 10:52:39 /1006/1006.2270 590000[\includegraphics, \catchline, {history}, \lesssim, \revised, \newcounter, \keywords, \received]; 1 missing file[ws.sty].
25435 2013-04-12 10:51:58 /1006/1006.2261 030000[\extrasenglish, \dateenglish, \captionsenglish].
25436 2013-04-12 10:51:39 /1006/1006.2232 030000[\theappendix].
25437 2013-04-12 10:51:39 /1006/1006.2237 4120000[\psfrag, \SilentMatrices]; 10 missing files[xycurve.sty, xymatrix.sty, xyline.sty, xyarrow.sty, xycmtip.sty, xycolor.sty, xyrotate.sty, xy.sty, xyframe.sty, xygraph.sty].
25438 2013-04-12 10:51:37 /1006/1006.2230 2670000[\extrasenglish, \@end@institute, \noextrasenglish, \dateenglish, \captionsenglish].
25439 2013-04-12 10:51:07 /1006/1006.2185 6910000[\interleave].
25440 2013-04-12 10:50:52 /1006/1006.2193 32140000[{xy}, \xyoption]; 1 missing file[xy.sty].
25441 2013-04-12 10:50:27 /1006/1006.2216 13310000[\smaller].
25442 2013-04-12 10:50:16 /1006/1006.2202 3680000[\bm, \ccode, \catchline, \refcite, \pub, \keywords]; 1 missing file[ws.sty].
25443 2013-04-12 10:50:09 /1006/1006.2208 1510000[\citen].
25444 2013-04-12 10:49:53 /1006/1006.2203 1160000[\inst, \accepted, \Month, \publonline, \email, \titlerunning, \fnmsep, \authorrunning, \received, \Issue, \Yearsubmission, \institute, \Yearpublication, \Volume, \Pagespan, \acknowledgements].
25445 2013-04-12 10:49:42 /1006/1006.2148 137490000[\btPrintCited, {fmfgraph}, \fmf, \xydef@, \fmfv, \fmftop, \boxbackslash, \fmfdot, {fmfgraph*}, \textifsymbol, \subfloat, \fmfleft, \fmfright, \obackslash, \ar, {fmffile}, {btSect}, \xymatrixcolsep@, \xymatrix, \fmfbottom, Align]; 6 missing files[bibtopic
25446 2013-04-12 10:49:35 /1006/1006.2174 33100000[\dottedcontents, \thecontentslabel, \titlecontents, \shortdate, \prettyref, \@starttoc, \geometry, \thecontentspage]; 2 missing files[datetime.sty, pdfcolmk.sty].
25447 2013-04-12 10:49:08 /1006/1006.2195 160000[\extrasenglish, {keywords}, \subfloat, {proof}, \dateenglish, \captionsenglish]; 1 missing file[IEEEtran.cls].
25448 2013-04-12 10:48:36 /1006/1006.2201 910000[\ead].
25449 2013-04-12 10:48:32 /1006/1006.2200 270000[\inst, \titlerunning, \volnopage, \institute, \authorrunning, {acknowledgements}, \keywords]; 1 missing file[raa.cls].
25450 2013-04-12 10:48:25 /1006/1006.2182 4100000[\apj, \inst, \pasj, \institute, \apjl, \aap, \mnras, \titlerunning, \authorrunning, {acknowledgements}]; 1 missing file[fmj2010.cls].
25451 2013-04-12 10:48:05 /1006/1006.2165 402190000[\mathds, {algorithm}, \EndFor, \Comment, \setenumerate, {algorithmic}, \coloneqq, \For, \State, \subref, \Return, \setitemize]; 3 missing files[mathtools.sty, hypcap.sty, scrartcl.cls].
25452 2013-04-12 10:48:03 /1006/1006.2176 16100000[\psfig, \bodymatter, \refcite, {itemlist}]; 1 missing file[ws.sty].
25453 2013-04-12 10:47:30 /1006/1006.2142 4890000[\Arc, \Vertex, \Text, \Line, \slashed, \SetWidth, \Photon, \SetColor]; 1 missing file[axodraw4j.sty].
25454 2013-04-12 10:46:29 /1006/1006.2144 45370000[{varwidth}, \psfrag, {psfrags}]; 1 missing file[varwidth.sty].
25455 2013-04-12 10:46:24 /1006/1006.2145 6100000[\centertexdraw, \setunitscale, \avec, \lvec, \htext, \linewd, \move, \lpatt, \arrowheadsize, \arrowheadtype].
25456 2013-04-12 10:46:16 /1006/1006.2154 4040000[\topmargin, \textheight, \oddsidemargin, \textwidth].
25457 2013-04-12 10:45:58 /1006/1006.2151 27720000[\psfrag, {sideways}].
25458 2013-04-12 10:45:45 /1006/1006.2106 7070000[Align, @ , \xymatrix, \geometry, \ar]; 2 missing files[xy.sty, path.sty].
25459 2013-04-12 10:44:53 /1006/1006.2123 3560000[\pinlabel, \endlabellist, \labellist]; 2 missing files[pinlabel.sty, xy.sty].
25460 2013-04-12 10:44:39 /1006/1006.2134 410000[\linenumbers].
25461 2013-04-12 10:44:02 /1006/1006.2140 510000[{comment}].
25462 2013-04-12 10:43:47 /1006/1006.2138 340000[\includegraphics, {keywords}, \resizebox, \received]; 1 missing file[gPHT2e.cls].
25463 2013-04-12 10:43:08 /1006/1006.2128 470000[\sodauthor, \rauthor, \address, \dates, \lat, \PACS, \rtitle].
25464 2013-04-12 10:42:58 /1006/1006.2120 76220000[\authortwo, {lemma}, {theorem}, \ams, \addressthree, \authorone, \addressone, \authornames, \shorttitle, {corollary}, {remark}, \addresstwo, {proposition}, \authorthree].
25465 2013-04-12 10:42:46 /1006/1006.2115 460000[\vs, \citelist, \bfR, \rmSL, \boldR, \vcev].
25466 2013-04-12 10:42:35 /1006/1006.2118 610000[\mathds].
25467 2013-04-12 10:41:43 /1006/1006.2101 6120000[\arXivid]; 1 missing file[xy.sty].
25468 2013-04-12 10:41:42 /1006/1006.2109 1080000[\ShortTitle, \Line, \SetWidth, \email, \SetScale, \FullConference, \CArc, \speaker]; 1 missing file[PoS.cls].
25469 2013-04-12 10:41:36 /1006/1006.2094 150000[\numparts, \endnumparts, \address, \eref, \ead]; 1 missing file[iopart_arXiv10062094v6.cls].
25470 2013-04-12 10:41:34 /1006/1006.2091 9460000[\fnref, \slashed, Align, \cortext, \fntext, \biboptions].
25471 2013-04-12 10:41:31 /1006/1006.2093 010000[\subref].
25472 2013-04-12 10:41:21 /1006/1006.2083 17580000[\xspace, \cmsinstskip, \hypersetup, \includegraphics, \cmsNoteHeader, \cmsAuthorMark, \text, \RCS]; 1 missing file[cms-tdr.cls].
25473 2013-04-12 10:41:21 /1006/1006.2097 130000[\inst, \institute, {acknowledgements}]; 1 missing file[fmj2010.cls].
25474 2013-04-12 10:41:19 /1006/1006.2098 160000[\apj, \inst, \institute, \authorrunning, \aap, {acknowledgements}]; 1 missing file[fmj2010.cls].
25475 2013-04-12 10:41:10 /1006/1006.2099 1140000[\Line, \rText, \FullConference, \PText, \SetPFont, \LogAxis, \LinAxis, \ShortTitle, \Vertex, \Text, \email, \SetScale, \SetOffset, \speaker]; 1 missing file[PoS.cls].
25476 2013-04-12 10:41:03 /1006/1006.2086 140000[\extrasenglish, {proof}, \dateenglish, \captionsenglish]; 1 missing file[IEEEtran.cls].
25477 2013-04-12 10:40:13 /1006/1006.2046 64170000[{fmffile}, \fmfblob, {fmfgraph*}, \fmf, \fmfleft, \fmfright, \fmfv].
25478 2013-04-12 10:40:12 /1006/1006.2078 2850000[\PACSes, \BY, \IN, \instlist, \from].
25479 2013-04-12 10:40:01 /1006/1006.2079 160000[\mnras, \email, \inst, \institute, \ga, {acknowledgements}]; 1 missing file[fmj2010.cls].
25480 2013-04-12 10:39:51 /1006/1006.2064 470000[\vs, \titlerunning, \volnopage, \institute, \authorrunning, \no, \keywords]; 1 missing file[raa.cls].
25481 2013-04-12 10:39:32 /1006/1006.2012 26710000[\citeN].
25482 2013-04-12 10:39:12 /1006/1006.2059 540000[Align, \xymatrix, \ar]; 1 missing file[xy.sty].
25483 2013-04-12 10:38:57 /1006/1006.2055 8150000[{IEEEkeywords}, \IEEEpeerreviewmaketitle, \ifCLASSOPTIONcaptionsoff, \ifCLASSINFOpdf]; 1 missing file[IEEEtran.cls].
25484 2013-04-12 10:38:37 /1006/1006.2060 14100000[\citeauthoryear, {keywords}, \citep, \citealt, \sun, \includegraphics, \pagerange, \citet, \pubyear]; 1 missing file[mnarxiv.cls].
25485 2013-04-12 10:37:39 /1006/1006.2040 4130000[\ocis, \oc, \opex, \pre, \theappendix, \address, \apl, \josa, \subfloat, \email, \jqe, \subref, \ol].
25486 2013-04-12 10:37:22 /1006/1006.2009 32140000[\half, \zm, \rmO, \Tr, \eq, \CF, \zv, \za, \zs, \zp]; 2 missing files[macros.sty, mathbbol.sty].
25487 2013-04-12 10:37:13 /1006/1006.2021 640000[Align, \xymatrix, \ar]; 1 missing file[xy.sty].
25488 2013-04-12 10:36:52 /1006/1006.2019 040000[\extrasenglish, \dateenglish, \captionsenglish]; 1 missing file[esint.sty].
25489 2013-04-12 10:36:44 /1006/1006.1996 530000[\citeasnoun].
25490 2013-04-12 10:36:40 /1006/1006.2006 4730000[{keywords}, \IEEEauthorblockA, \IEEEauthorblockN]; 1 missing file[IEEEtran.cls].
25491 2013-04-12 10:36:33 /1006/1006.1995 110000[\theappendix].
25492 2013-04-12 10:36:33 /1006/1006.2004 190000[\IEEEauthorblockA, \IEEEauthorblockN, \subfloat, \psfrag, \IEEEoverridecommandlockouts, \IEEEauthorrefmark]; 4 missing files[skull.sty, type1cm.sty, IEEEtran.cls, microtype.sty].
25493 2013-04-12 10:36:14 /1006/1006.2010 040000[\extrasenglish, {comment}, \dateenglish, \captionsenglish].
25494 2013-04-12 10:36:09 /1006/1006.1976 710000[\unit].
25495 2013-04-12 10:35:59 /1006/1006.1980 5140000[\endxy, \POS, \cir, \xy, \ar]; 9 missing files[xycurve.sty, xymatrix.sty, xyline.sty, xyarrow.sty, xycmtip.sty, xycolor.sty, xyrotate.sty, xyframe.sty, xygraph.sty].
25496 2013-04-12 10:35:59 /1006/1006.1984 810000[\unit].
25497 2013-04-12 10:35:50 /1006/1006.1982 020000[{threeparttable}]; 1 missing file[threeparttable.sty].
25498 2013-04-12 10:35:32 /1006/1006.1972 3790000[\notip, \enddiagram, Align, \Solid, \definemorphism, \dto, \rto, \diagram, \dgleich].
25499 2013-04-12 10:35:26 /1006/1006.1987 010000[\cancelto].
25500 2013-04-12 10:35:23 /1006/1006.1989 110000[\mathfrak].
25501 2013-04-12 10:35:05 /1006/1006.1975 220000[\fnref, \fntext].
25502 2013-04-12 10:34:50 /1006/1006.1965 1210000[\placementHere, \nicefrac, \subfloat, \mathbold, \acp]; 2 missing files[fixmath.sty, microtype.sty].
25503 2013-04-12 10:34:46 /1006/1006.1952 1320000[\href, \url].
25504 2013-04-12 10:34:34 /1006/1006.1963 910000[\cortext].
25505 2013-04-12 10:33:59 /1006/1006.1960 2740000[Align, \xymatrix, \ar]; 1 missing file[xy.sty].
25506 2013-04-12 10:33:31 /1006/1006.1949 5250000[Align, \xymatrix, \ar]; 2 missing files[xy.sty, epsbox.sty].
25507 2013-04-12 10:32:49 /1006/1006.1920 17830000[\mathds, \Red]; 1 missing file[colordvi.sty].
25508 2013-04-12 10:32:41 /1006/1006.1933 010000[\citeauthoryear].
25509 2013-04-12 10:32:38 /1006/1006.1914 314130000[{appendices}, Align, {comment}, \@close@row, \geometry].
25510 2013-04-12 10:31:57 /1006/1006.1925 970000[Align, \xyoption, \institution, \smalltableofcontents, \xymatrix, \ar]; 1 missing file[xy.sty].
25511 2013-04-12 10:31:10 /1006/1006.1915 140000[{comment}]; 1 missing file[xy.sty].
25512 2013-04-12 10:31:05 /1006/1006.1909 2420000[\theappendix]; 1 missing file[e-jc.sty].
25513 2013-04-12 10:30:53 /1006/1006.1896 5430000[\mathds].
25514 2013-04-12 10:30:41 /1006/1006.1918 1110000[\HeadingTitle, \Issue, \inst, \HeadingAuthor, \institutename, \institute, \Author, \Title, \And, \Body]; 1 missing file[ejs-article.sty].
25515 2013-04-12 10:30:40 /1006/1006.1919 080000[\affaddr, \numberofauthors, \terms, \alignauthor, \keywords, \email, \category, \balancecolumns].
25516 2013-04-12 10:30:35 /1006/1006.1899 7910000[\cancel].
25517 2013-04-12 10:30:19 /1006/1006.1879 28970000[\theappendix, \rA, \iB, \iA, \rC, \rB, \multido].
25518 2013-04-12 10:30:06 /1006/1006.1910 160000[\includegraphics, \email, \SectionNumbersOn, \affiliation, \alsoaffiliation, {acknowledgement}]; 1 missing file[achemso.cls].
25519 2013-04-12 10:29:57 /1006/1006.1853 5620000[{comment}, \geometry].
25520 2013-04-12 10:29:46 /1006/1006.1865 4210000[\psfrag].
25521 2013-04-12 10:29:28 /1006/1006.1883 010000[{comment}].
25522 2013-04-12 10:29:09 /1006/1006.1890 6170000[{keywords}, \ifCLASSINFOpdf]; 1 missing file[IEEEtran.cls].
25523 2013-04-12 10:28:52 /1006/1006.1859 2950000[\slashed, \geometry].
25524 2013-04-12 10:28:43 /1006/1006.1871 4510000[\nicefrac].
25525 2013-04-12 10:28:38 /1006/1006.1856 4410000[\subfloat].
25526 2013-04-12 10:28:23 /1006/1006.1867 1470000[\citep, \accepted, \apjl, \tabletypesize, {deluxetable}, \tablecomments, \startdata, \enddata, \received, \colhead, \aj, \keywords, Align, \citeindextrue, \tablecaption, \submitted, \apj, \degr, \tablecolumns, \acknowledgments, \aap, \shortauthors, \shor
25527 2013-04-12 10:27:56 /1006/1006.1829 1410000[\marginsize].
25528 2013-04-12 10:27:45 /1006/1006.1844 1020000[\sectionfont]; 1 missing file[sectsty.sty].
25529 2013-04-12 10:27:43 /1006/1006.1823 1450000[\mathds, \slashed].
25530 2013-04-12 10:27:17 /1006/1006.1834 220000[\jcap]; 1 missing file[spr-astr-addons.sty].
25531 2013-04-12 10:27:13 /1006/1006.1851 130000[\address, {frontmatter}, {keyword}]; 1 missing file[alaska.cls].
25532 2013-04-12 10:27:10 /1006/1006.1852 130000[\address, {frontmatter}, {keyword}]; 1 missing file[munich.cls].
25533 2013-04-12 10:27:06 /1006/1006.1842 520000[\jcap]; 1 missing file[spr-astr-addons.sty].
25534 2013-04-12 10:27:03 /1006/1006.1824 1320000[\degree]; 1 missing file[gensymb.sty].
25535 2013-04-12 10:26:53 /1006/1006.1827 320000[\@@italiccorr, \psfrag].
25536 2013-04-12 10:26:30 /1006/1006.1814 210000[\listfiles].
25537 2013-04-12 10:26:27 /1006/1006.1815 060000[\extrasenglish, {comment}, \dateenglish, \captionsenglish]; 1 missing file[esint.sty].
25538 2013-04-12 10:26:24 /1006/1006.1817 160000[{keywords}, \affiliation, \jvol, \ARinfo, \jname, \jyear]; 1 missing file[ar2e.cls].
25539 2013-04-12 10:26:23 /1006/1006.1806 510000[\slashed].
25540 2013-04-12 10:26:19 /1006/1006.1800 1210000[\nicefrac].
25541 2013-04-12 10:26:02 /1006/1006.1805 6110000[\eqref, \catchline, {split}, \psfig, \keywords, Align, {history}, \newcounter, \revised, \received]; 1 missing file[ws.sty].
25542 2013-04-12 10:25:59 /1006/1006.1803 090000[\affil, \citep, \plotone, \citet, \tableline, \acknowledgements]; 1 missing file[asp2010.sty].
25543 2013-04-12 10:25:56 /1006/1006.1807 720000[\title, \date].
25544 2013-04-12 10:25:55 /1006/1006.1667 1001160000[\Qc, \Sc, \Nc, \reff, \Yc, \Cc, \eu, \Xc, \Uc, \Xm, \E, \defeq, \Ec]; 2 missing files[mathcom.sty, xy.sty].
25545 2013-04-12 10:25:55 /1006/1006.1794 030000[\extrasenglish, \dateenglish, \captionsenglish].
25546 2013-04-12 10:25:33 /1006/1006.1802 4120000[\geometry]; 1 missing file[parskip.sty].
25547 2013-04-12 10:25:21 /1006/1006.1713 19710000[\mathds].
25548 2013-04-12 10:25:15 /1006/1006.1754 54390000[\node, \arrow, {diagram}]; 1 missing file[xy.sty].
25549 2013-04-12 10:25:09 /1006/1006.1779 810000[\theappendix].
25550 2013-04-12 10:25:00 /1006/1006.1778 1910000[\bibname].
25551 2013-04-12 10:24:56 /1006/1006.1788 010000[\@end@institute].
25552 2013-04-12 10:24:55 /1006/1006.1787 020000[Align, \biboptions].
25553 2013-04-12 10:24:44 /1006/1006.1789 010000[\@end@institute].
25554 2013-04-12 10:24:32 /1006/1006.1782 780000[\urladdr, \address, \subjclass, \email, {resume}, {proof}, {abstr}, \keywords]; 1 missing file[jT.cls].
25555 2013-04-12 10:24:31 /1006/1006.1776 860000[\includegraphics, \ShortTitle, \email, \FullConference, \acknowledgments, \speaker]; 1 missing file[PoS.cls].
25556 2013-04-12 10:24:19 /1006/1006.1768 15940000[\endxy, \POS, Align, \xymatrix, \newdir, \xy, \ar]; 1 missing file[xy.sty].
25557 2013-04-12 10:24:17 /1006/1006.1766 63160000[\Book, \pacs, \inst, \shortauthor, \institute, \onefigure, \acknowledgments, \Page, \Publ, \shorttitle, \Name, \Vol, \Editor, \Year, \REVIEW, \etal]; 1 missing file[epl2.cls].
25558 2013-04-12 10:24:12 /1006/1006.1764 010000[\ead].
25559 2013-04-12 10:24:09 /1006/1006.1761 12440000[\theappendix, \subref]; 2 missing files[pstricks-add.sty, slashbox.sty].
25560 2013-04-12 10:24:05 /1006/1006.1770 120000[{bibsection}].
25561 2013-04-12 10:23:53 /1006/1006.1749 3280000[\underaccent]; 1 missing file[pstricks-add.sty].
25562 2013-04-12 10:23:53 /1006/1006.1759 820000[\xyoption]; 1 missing file[xy.sty].
25563 2013-04-12 10:23:49 /1006/1006.1752 16190000[{lemma}, {theorem}, \pdfbookmark, \LastPageEnding, \Classification, \ArticleDates, {remark}, \AuthorNameForHeading, \URLaddress, {proposition}, \Abstract, \ArticleName, \ShortArticleName, \FirstPageHeading, \Address, \Author, {corollary}, \Email, \Keywor
25564 2013-04-12 10:23:31 /1006/1006.1743 4200000[\IEEEauthorblockA, \IEEEauthorblockN, {algorithm}, \If, \KwIn, {IEEEproof}, \KwIni, \KwOut, \IEEEoverridecommandlockouts, \linesnumbered, \While, \SetKwInput, \dontprintsemicolon, \BlankLine, \SetVline, \nllabel]; 2 missing files[IEEEtran.cls, breakurl.s
25565 2013-04-12 10:23:18 /1006/1006.1760 35170000[\doi, \jvol, \issn, \jyear, \articletype, \includegraphics, \jmonth, \jnum, \issnp]; 1 missing file[tPHM2e.cls].
25566 2013-04-12 10:23:04 /1006/1006.1745 1530000[\mr, \br, \ead].
25567 2013-04-12 10:22:46 /1006/1006.1750 1330000[\pacs, \inst, \un, \onefigure, \Page, \shorttitle, \upd, \Year, \Book, \SAME, \shortauthor, \institute, \Publ, \Name, \Vol, \Editor, \REVIEW]; 1 missing file[epl2.cls].
25568 2013-04-12 10:22:43 /1006/1006.1735 2370000[\IEEEauthorblockA, \IEEEauthorblockN, \IEEEoverridecommandlockouts, \arraybackslash, \ifCLASSINFOpdf]; 1 missing file[IEEEtran.cls].
25569 2013-04-12 10:21:55 /1006/1006.1698 3710000[\theappendix].
25570 2013-04-12 10:21:39 /1006/1006.1678 610000[\theappendix].
25571 2013-04-12 10:21:36 /1006/1006.1714 090000[\affil, \plotone, \citep, \acknowledgements, \plottwo]; 1 missing file[asp2010.sty].
25572 2013-04-12 10:21:26 /1006/1006.1721 0160000[\inst, \accepted, \Month, \publonline, \email, \titlerunning, \fnmsep, \authorrunning, \received, \Issue, \Yearsubmission, \institute, \Yearpublication, \Volume, \Pagespan, \acknowledgements].
25573 2013-04-12 10:21:17 /1006/1006.1694 1240000[{keywords}, \IEEEauthorblockA, \IEEEauthorblockN, {proof}]; 1 missing file[IEEEtran.cls].
25574 2013-04-12 10:21:16 /1006/1006.1710 910000[\mathaccentV].
25575 2013-04-12 10:21:08 /1006/1006.1674 77270000[\tnoteref, \subfloat, \tnotetext, \cortext, \psfrag, {psfrags}]; 1 missing file[slashbox.sty].
25576 2013-04-12 10:20:52 /1006/1006.1673 57240000[{IEEEkeywords}, Align, \subfloat, {numcases}, \psfrag, \IEEEmembership, {psfrags}]; 2 missing files[slashbox.sty, IEEEtran.cls].
25577 2013-04-12 10:20:52 /1006/1006.1690 120000[{IEEEkeywords}, \IEEEPARstart]; 1 missing file[IEEEtran.cls].
25578 2013-04-12 10:20:51 /1006/1006.1687 040000[\extrasenglish, \dateenglish, \captionsenglish]; 1 missing file[esint.sty].
25579 2013-04-12 10:20:45 /1006/1006.1662 6810000[\subfloat].
25580 2013-04-12 10:20:42 /1006/1006.1666 350000[{keywords}, \IEEEpeerreviewmaketitle, \IEEEmembership, \appendices, {proof}]; 1 missing file[IEEEtran.cls].
25581 2013-04-12 10:19:55 /1006/1006.1647 1330000[{sidewaystable*}, \uline].
25582 2013-04-12 10:19:52 /1006/1006.1658 1170000[\iddots, {IEEEkeywords}, \authorblockN, \authorblockA, \IEEEoverridecommandlockouts]; 3 missing files[stfloats.sty, IEEEtran.cls, breakurl.sty].
25583 2013-04-12 10:19:34 /1006/1006.1660 110000[\MakeTextLowercase].
25584 2013-04-12 10:19:31 /1006/1006.1664 4110000[\theappendix].
25585 2013-04-12 10:18:37 /1006/1006.1635 040000[\extrasenglish, \dateenglish, \captionsenglish]; 1 missing file[esint.sty].
25586 2013-04-12 10:18:31 /1006/1006.1638 1040000[\includegraphics, \email, \affiliation, \resizebox]; 1 missing file[achemso.cls].
25587 2013-04-12 10:18:20 /1006/1006.1599 78800000[Align, \xymatrix, \ar]; 9 missing files[xycurve.sty, xymatrix.sty, xyline.sty, xyarrow.sty, xycmtip.sty, xycolor.sty, xyrotate.sty, xyframe.sty, xygraph.sty].
25588 2013-04-12 10:18:15 /1006/1006.1619 6810000[\theappendix].
25589 2013-04-12 10:18:06 /1006/1006.1616 15250000[\opt, \my, \comm, \R, \C, \keywords, \anticomm, \address, \email, \Cl, \Identity, \End]; 3 missing files[Paper_notes, mbh_defs_TeX, optional.sty].
25590 2013-04-12 10:18:05 /1006/1006.1608 10330000[\nicefrac, \mathds, \@end@institute, \psfrag, \mathsmaller].
25591 2013-04-12 10:18:01 /1006/1006.1628 010000[\subfloat].
25592 2013-04-12 10:17:46 /1006/1006.1633 330000[\xyoption, \SelectTips]; 1 missing file[xy.sty].
25593 2013-04-12 10:17:43 /1006/1006.1621 010000[\index].
25594 2013-04-12 10:17:40 /1006/1006.1617 3030000[\citenum].
25595 2013-04-12 10:17:23 /1006/1006.1623 1030000[\fnref, \cortext, \fntext].
25596 2013-04-12 10:17:19 /1006/1006.1622 030000[\extrasenglish, \dateenglish, \captionsenglish].
25597 2013-04-12 10:16:41 /1006/1006.1597 040000[\extrasenglish, \dateenglish, \captionsenglish]; 1 missing file[esint.sty].
25598 2013-04-12 10:16:28 /1006/1006.1567 135130000[\kwd, \snm, \affiliation, {keyword}, \fnms, \runtitle, \theappendix, {aug}, \address, \runauthor, \printead, {frontmatter}, \ead]; 1 missing file[imsart.cls].
25599 2013-04-12 10:16:15 /1006/1006.1587 0740000[\xymatrix, \dateenglish, \extrasenglish, Align, \subfloat, {comment}, \SelectTips, \captionsenglish, \ar]; 1 missing file[xy.sty].
25600 2013-04-12 10:16:10 /1006/1006.1586 030000[\bodymatter, \keywords]; 1 missing file[ws.sty].
<<< >>>

[0] [200] [400] [600] [800] [1000] [1200] [1400] [1600] [1800] [2000] [2200] [2400] [2600] [2800] [3000] [3200] [3400] [3600] [3800] [4000] [4200] [4400] [4600] [4800] [5000] [5200] [5400] [5600] [5800] [6000] [6200] [6400] [6600] [6800] [7000] [7200] [7400] [7600] [7800] [8000] [8200] [8400] [8600] [8800] [9000] [9200] [9400] [9600] [9800] [10000] [10200] [10400] [10600] [10800] [11000] [11200] [11400] [11600] [11800] [12000] [12200] [12400] [12600] [12800] [13000] [13200] [13400] [13600] [13800] [14000] [14200] [14400] [14600] [14800] [15000] [15200] [15400] [15600] [15800] [16000] [16200] [16400] [16600] [16800] [17000] [17200] [17400] [17600] [17800] [18000] [18200] [18400] [18600] [18800] [19000] [19200] [19400] [19600] [19800] [20000] [20200] [20400] [20600] [20800] [21000] [21200] [21400] [21600] [21800] [22000] [22200] [22400] [22600] [22800] [23000] [23200] [23400] [23600] [23800] [24000] [24200] [24400] [24600] [24800] [25000] [25200] [25400] [25600] [25800] [26000] [26200] [26400] [26600] [26800] [27000] [27200] [27400] [27600] [27800] [28000] [28200] [28400] [28600] [28800] [29000] [29200] [29400] [29600] [29800] [30000] [30200] [30400] [30600] [30800] [31000] [31200] [31400] [31600] [31800] [32000] [32200] [32400] [32600] [32800] [33000] [33200] [33400] [33600] [33800] [34000] [34200] [34400] [34600] [34800] [35000] [35200] [35400] [35600] [35800] [36000] [36200] [36400] [36600] [36800] [37000] [37200] [37400] [37600] [37800] [38000] [38200] [38400] [38600] [38800] [39000] [39200] [39400] [39600] [39800] [40000] [40200] [40400] [40600] [40800] [41000] [41200] [41400] [41600] [41800] [42000] [42200] [42400] [42600] [42800] [43000] [43200] [43400] [43600] [43800] [44000] [44200] [44400] [44600] [44800] [45000] [45200] [45400] [45600] [45800] [46000] [46200] [46400] [46600] [46800] [47000] [47200] [47400] [47600] [47800] [48000] [48200] [48400] [48600] [48800] [49000] [49200] [49400] [49600] [49800] [50000] [50200] [50400] [50600] [50800] [51000] [51200] [51400] [51600] [51800] [52000] [52200] [52400] [52600] [52800] [53000] [53200] [53400] [53600] [53800] [54000] [54200] [54400] [54600] [54800] [55000] [55200] [55400] [55600] [55800] [56000] [56200] [56400] [56600] [56800] [57000] [57200] [57400] [57600] [57800] [58000] [58200] [58400] [58600] [58800] [59000] [59200] [59400] [59600] [59800] [60000] [60200] [60400] [60600] [60800] [61000] [61200] [61400] [61600] [61800] [62000] [62200] [62400] [62600] [62800] [63000] [63200] [63400] [63600] [63800] [64000] [64200] [64400] [64600] [64800] [65000] [65200] [65400] [65600] [65800] [66000] [66200] [66400] [66600] [66800] [67000] [67200] [67400] [67600] [67800] [68000] [68200] [68400] [68600] [68800] [69000] [69200] [69400] [69600] [69800] [70000] [70200] [70400] [70600] [70800] [71000] [71200] [71400] [71600] [71800] [72000] [72200] [72400] [72600] [72800] [73000] [73200] [73400] [73600] [73800] [74000] [74200] [74400] [74600] [74800] [75000] [75200] [75400] [75600] [75800] [76000] [76200] [76400] [76600] [76800] [77000] [77200] [77400] [77600] [77800] [78000] [78200] [78400] [78600] [78800] [79000] [79200] [79400] [79600] [79800] [80000] [80200] [80400] [80600] [80800] [81000] [81200] [81400] [81600] [81800] [82000] [82200] [82400] [82600] [82800] [83000] [83200] [83400] [83600] [83800] [84000] [84200] [84400] [84600] [84800] [85000] [85200] [85400] [85600] [85800] [86000] [86200] [86400] [86600] [86800] [87000] [87200] [87400] [87600] [87800] [88000] [88200] [88400] [88600] [88800] [89000] [89200] [89400] [89600] [89800] [90000] [90200] [90400] [90600] [90800] [91000] [91200] [91400] [91600] [91800] [92000] [92200] [92400] [92600] [92800] [93000] [93200] [93400] [93600] [93800] [94000] [94200] [94400] [94600] [94800] [95000] [95200] [95400] [95600] [95800] [96000] [96200] [96400] [96600] [96800] [97000] [97200] [97400] [97600] [97800] [98000] [98200] [98400] [98600] [98800] [99000] [99200] [99400] [99600] [99800] [100000] [100200] [100400] [100600] [100800] [101000] [101200] [101400] [101600] [101800] [102000] [102200] [102400] [102600] [102800] [103000] [103200] [103400] [103600] [103800] [104000] [104200] [104400] [104600] [104800] [105000] [105200] [105400] [105600] [105800] [106000] [106200] [106400] [106600] [106800] [107000] [107200] [107400] [107600] [107800] [108000] [108200] [108400] [108600] [108800] [109000] [109200] [109400] [109600] [109800] [110000] [110200] [110400] [110600] [110800] [111000] [111200] [111400] [111600] [111800] [112000] [112200] [112400] [112600] [112800] [113000] [113200] [113400] [113600] [113800] [114000] [114200] [114400] [114600] [114800] [115000] [115200] [115400] [115600] [115800] [116000] [116200] [116400] [116600] [116800] [117000] [117200] [117400] [117600] [117800] [118000] [118200] [118400] [118600] [118800] [119000] [119200] [119400] [119600] [119800] [120000] [120200] [120400] [120600] [120800] [121000] [121200] [121400] [121600] [121800] [122000] [122200] [122400] [122600] [122800] [123000] [123200] [123400] [123600] [123800] [124000] [124200] [124400] [124600] [124800] [125000] [125200] [125400] [125600] [125800] [126000] [126200] [126400] [126600] [126800] [127000] [127200] [127400] [127600] [127800] [128000] [128200] [128400] [128600] [128800] [129000] [129200] [129400] [129600] [129800] [130000] [130200] [130400] [130600] [130800] [131000] [131200] [131400] [131600] [131800] [132000] [132200] [132400] [132600] [132800] [133000] [133200] [133400] [133600] [133800] [134000] [134200] [134400] [134600] [134800] [135000] [135200] [135400] [135600] [135800] [136000] [136200] [136400] [136600] [136800] [137000] [137200] [137400] [137600] [137800] [138000] [138200] [138400] [138600] [138800] [139000] [139200] [139400] [139600] [139800] [140000] [140200] [140400] [140600] [140800] [141000] [141200] [141400] [141600] [141800] [142000] [142200] [142400] [142600] [142800] [143000] [143200] [143400] [143600] [143800] [144000] [144200] [144400] [144600] [144800] [145000] [145200] [145400] [145600] [145800] [146000] [146200] [146400] [146600] [146800] [147000] [147200] [147400] [147600] [147800] [148000] [148200] [148400] [148600] [148800] [149000] [149200] [149400] [149600] [149800] [150000] [150200] [150400] [150600] [150800] [151000] [151200] [151400] [151600] [151800] [152000] [152200] [152400] [152600] [152800] [153000] [153200] [153400] [153600] [153800] [154000] [154200] [154400] [154600] [154800] [155000] [155200] [155400] [155600] [155800] [156000] [156200] [156400] [156600] [156800] [157000] [157200] [157400] [157600] [157800] [158000] [158200] [158400] [158600] [158800] [159000] [159200] [159400] [159600] [159800] [160000] [160200] [160400] [160600] [160800] [161000] [161200] [161400] [161600] [161800] [162000] [162200] [162400] [162600] [162800] [163000] [163200] [163400] [163600] [163800] [164000] [164200] [164400] [164600]
 
  The service has been written by
Heinrich Stamerjohanns